• Join FlightAware (Why Join?)
  • Login
  • US Flag 
07:51AM EST


 

Airport Tracker/Info


-or-


 

Live Flight TrackerFlight Track Log ✈ JBU19 ✈ 15-Jun-2013 ✈ KBTV - KJFK

Flight Track Log - Related Links

Times and Time Zones

All times are in EDT time to prevent confusion due to time zone crossing. See the JBU19 flight status page for this flight to view local times or setup timezone preferences in your user account.

Time Position Orientation Groundspeed Altitude Reporting Facility
EDT Latitude Longitude Course Direction KTS MPH feet Rate Location/Type
06:14AM 44.1312 -73.2758 195° South  Level FlightAware Approximate
06:14AM 44.2986 -73.1797 196° South 280 322 8,000  Level Boston Center
06:15AM 44.0467 -73.3067 194° South  Level FlightAware Approximate
06:15AM 44.2192 -73.2136 197° South 291 335 11,200  Level Boston Center
06:16AM 43.9618 -73.3350 193° South  Level FlightAware Approximate
06:16AM 44.1231 -73.2528 196° South 338 389 13,500  Level Boston Center
06:17AM 43.8774 -73.3658 196° South  Level FlightAware Approximate
06:17AM 44.0208 -73.2831 192° South 371 427 16,300  Level Boston Center
06:18AM 43.7935 -73.3995 196° South  Level FlightAware Approximate
06:18AM 43.9122 -73.3103 190° South 398 458 18,800  Level Boston Center
06:19AM 43.7096 -73.4330 196° South  Level FlightAware Approximate
06:19AM 43.7972 -73.3375 190° South 409 471 21,100  Level Boston Center
06:20AM 43.6783 -73.3672 190° South 434 499 22,800 1,950 Climbing Boston Center
06:21AM 43.5553 -73.3911 188° South 445 512 25,000 1,850 Climbing Boston Center
06:22AM 43.4256 -73.4236 190° South 463 533 26,500 1,400 Climbing Boston Center
06:23AM 43.2919 -73.4528 189° South 480 552 27,800 750 Climbing Boston Center
06:24AM 43.1542 -73.4847 190° South 492 566 28,000 100 Climbing Boston Center
06:25AM 43.0267 -73.5164 190° South 506 582 28,000  Level Boston Center
06:26AM 42.8847 -73.5508 190° South 517 595 28,000  Level Boston Center
06:27AM 42.7322 -73.5878 190° South 512 589 28,000  Level Boston Center
06:28AM 42.5922 -73.6189 189° South 512 589 28,000  Level Boston Center
06:29AM 42.4503 -73.6500 189° South 517 595 28,000  Level Boston Center
06:30AM 42.3269 -73.6700 187° South 512 589 28,000  Level Boston Center
06:31AM 42.1661 -73.7144 192° South 520 598 28,000  Level Boston Center
06:32AM 42.0239 -73.7481 190° South 526 605 28,000 -168 Level Boston Center
06:34AM 41.7472 -73.8044 189° South 507 583 27,500 -1,039 Descending New York Center
06:35AM 41.6208 -73.8625 199° South 500 575 24,900 -2,391 Descending New York Center
06:36AM 41.4994 -73.9647 212° Southwest 456 525 22,200 -2,165 Descending New York Center
06:37AM 41.4119 -74.0408 213° Southwest 436 502 20,100 -1,119 Descending New York Center
06:38AM 41.3222 -74.1247 215° Southwest 417 480 20,000 -101 Descending New York Center
06:39AM 41.2183 -74.1886 205° Southwest 412 474 19,900 -496 Descending New York Center
06:40AM 41.0833 -74.1736 175° South 398 458 19,000 -505 Descending New York Center
06:41AM 41.0000 -74.1500 168° South 391 450 19,000  Level New York TRACON
06:42AM 40.9000 -74.1167 166° South 375 432 19,000 -624 Level New York TRACON
06:43AM 40.7833 -74.0833 168° South 368 423 17,700 -1,429 Descending New York TRACON
06:44AM 40.6833 -74.0500 166° South 363 418 16,000 -1,600 Descending New York TRACON
06:45AM 40.6000 -74.0167 163° South 348 400 14,500 -1,500 Descending New York TRACON
06:46AM 40.5167 -73.9500 149° Southeast 341 392 13,000 -1,190 Descending New York TRACON
06:47AM 40.4333 -73.8833 149° Southeast 333 383 12,100 -1,261 Descending New York TRACON
06:48AM 40.3667 -73.8167 143° Southeast 319 367 10,500 -1,750 Descending New York TRACON
06:49AM 40.3333 -73.7333 118° Southeast 313 360 8,600 -1,983 Descending New York TRACON
06:50AM 40.3500 -73.6167 79° East 293 337 6,500 -2,050 Descending New York TRACON
06:51AM 40.4000 -73.5667 37° Northeast 272 313 4,500 -1,700 Descending New York TRACON
06:52AM 40.4667 -73.5500 11° North 249 287 3,100 -750 Descending New York TRACON
06:53AM 40.5333 -73.5500 360° North 208 239 3,000 -150 Descending New York TRACON
06:54AM 40.5667 -73.6000 311° West 179 206 2,800 -550 Descending New York TRACON
06:55AM 40.6000 -73.6500 311° West 166 191 1,900 -800 Descending New York TRACON
06:56AM 40.6167 -73.6833 303° West 129 148 1,200 -650 Descending New York TRACON
06:57AM 40.6333 -73.7333 294° West 126 145 600 -600 Descending New York TRACON